DNMM/LOS METAR and TAF weather

Enter ICAO airport designator
Station Type Date Time Source
DNMM METAR 2019/04/19 22:00 UTC NOAA

DNMM 192200Z VRB02KT 9999 FEW012 28/26 Q1013 NOSIG


Station Type Date Time Source
DNMM Decoded METAR 2019/04/19 22:00 UTC NOAA

Lagos / Ikeja, Nigeria (DNMM) 06-35N 003-20E 38M
Apr 19, 2019 - 06:00 PM EDT / 2019.04.19 2200 UTC
Wind: Variable at 2 MPH (2 KT):0
Visibility: greater than 7 mile(s):0
Sky conditions: mostly clear
Temperature: 82 F (28 C)
Dew Point: 78 F (26 C)
Relative Humidity: 88%
Pressure (altimeter): 29.91 in. Hg (1013 hPa)
ob: DNMM 192200Z VRB02KT 9999 FEW012 28/26 Q1013 NOSIG
cycle: 22

Station Type Date Time Source
DNMM TAF 2019/04/19 18:21 UTC NOAA

TAF DNMM 191545Z 1918/2024 VRB02KT 9999 FEW011
BECMG 2008/2010 22010KT BKN014
TEMPO 2010/2015 TS BKN014 FEW020CB

Example: see airport list